createdAt,value
2022-12-01T00:01:21.332Z,82.50
2022-12-01T00:03:50.904Z,87.43
2022-12-01T00:06:20.115Z,92.10
2022-12-01T00:09:06.811Z,95.53
2022-12-01T00:11:35.006Z,81.70
2022-12-01T00:14:01.997Z,88.95
2022-12-01T00:16:28.632Z,79.15
2022-12-01T00:18:55.312Z,78.38
2022-12-01T00:21:24.176Z,95.95
2022-12-01T00:23:52.858Z,90.82
2022-12-01T00:26:20.777Z,100.60
2022-12-01T00:28:55.920Z,90.00
2022-12-01T00:31:22.958Z,87.82
2022-12-01T00:33:49.497Z,84.38
2022-12-01T00:36:16.025Z,78.63
2022-12-01T00:38:42.801Z,76.50
2022-12-01T00:41:09.271Z,72.20
2022-12-01T00:43:35.860Z,85.35
2022-12-01T00:46:02.531Z,78.47
2022-12-01T00:48:29.235Z,77.40
2022-12-01T00:50:55.983Z,73.03
2022-12-01T00:53:23.355Z,83.68
2022-12-01T00:55:49.873Z,93.20
2022-12-01T00:58:16.449Z,74.25
2022-12-01T01:00:42.990Z,79.72
2022-12-01T01:03:10.514Z,69.22
2022-12-01T01:05:42.079Z,90.05
2022-12-01T01:08:10.482Z,77.68
2022-12-01T01:10:41.773Z,78.32
2022-12-01T01:13:08.547Z,71.68
2022-12-01T01:15:35.239Z,72.55
2022-12-01T01:18:02.122Z,78.20
2022-12-01T01:20:28.739Z,76.25
2022-12-01T01:22:55.169Z,88.32
2022-12-01T01:25:21.641Z,84.35
2022-12-01T01:27:48.322Z,83.25
2022-12-01T01:30:15.292Z,91.53
2022-12-01T01:32:41.801Z,102.53
2022-12-01T01:35:08.640Z,89.43
2022-12-01T01:37:35.272Z,82.65
2022-12-01T01:40:01.695Z,76.78
2022-12-01T01:42:28.307Z,81.75
2022-12-01T01:44:58.928Z,80.38
2022-12-01T01:47:38.557Z,81.25
2022-12-01T01:50:09.518Z,84.93
2022-12-01T01:52:38.691Z,82.72
2022-12-01T01:55:05.798Z,89.18
2022-12-01T01:57:33.990Z,85.70
2022-12-01T02:00:20.968Z,86.35
2022-12-01T02:02:48.848Z,86.88
2022-12-01T02:05:25.181Z,94.63
2022-12-01T02:07:53.937Z,76.75
2022-12-01T02:10:24.289Z,81.18
2022-12-01T02:12:56.778Z,101.50
2022-12-01T02:15:38.081Z,91.03
2022-12-01T02:18:42.453Z,97.47
2022-12-01T02:21:32.207Z,91.35
2022-12-01T02:24:19.236Z,75.45
2022-12-01T02:27:29.760Z,93.50
2022-12-01T02:30:16.912Z,79.10
2022-12-01T02:33:02.419Z,85.93
2022-12-01T02:35:50.187Z,77.50
2022-12-01T02:38:35.438Z,93.57
2022-12-01T02:41:10.682Z,82.25
2022-12-01T02:43:46.193Z,94.03
2022-12-01T02:46:18.313Z,87.78
2022-12-01T02:48:49.343Z,91.00
2022-12-01T02:51:29.732Z,83.00
2022-12-01T02:54:01.603Z,86.15
2022-12-01T02:56:28.452Z,94.03
2022-12-01T02:58:55.354Z,82.82
2022-12-01T03:01:52.516Z,86.80
2022-12-01T03:04:49.988Z,90.32
2022-12-01T03:07:33.257Z,91.05
2022-12-01T03:10:24.579Z,99.03
2022-12-01T03:12:59.468Z,97.78
2022-12-01T03:15:38.484Z,86.25
2022-12-01T03:18:14.164Z,93.85
2022-12-01T03:20:59.340Z,95.18
2022-12-01T03:23:30.496Z,91.32
2022-12-01T03:26:00.407Z,100.05
2022-12-01T03:28:33.028Z,87.82
2022-12-01T03:31:06.220Z,92.18
2022-12-01T03:33:38.038Z,88.22
2022-12-01T03:36:10.694Z,88.15
2022-12-01T03:38:37.473Z,88.55
2022-12-01T03:41:14.135Z,106.10
2022-12-01T03:43:44.950Z,84.95
2022-12-01T03:46:22.316Z,73.82
2022-12-01T03:48:49.633Z,84.80
2022-12-01T03:51:26.904Z,70.32
2022-12-01T03:54:07.917Z,81.75
2022-12-01T03:56:52.404Z,64.13
2022-12-01T03:59:21.187Z,79.90
2022-12-01T04:01:47.817Z,72.75
2022-12-01T04:04:15.051Z,84.28
2022-12-01T04:06:44.895Z,75.68
2022-12-01T04:09:11.492Z,66.68
2022-12-01T04:11:56.717Z,64.95
2022-12-01T04:14:23.201Z,83.90
2022-12-01T04:16:49.632Z,80.65
2022-12-01T04:19:16.124Z,65.18
2022-12-01T04:21:42.652Z,63.35
2022-12-01T04:24:09.112Z,65.45
2022-12-01T04:26:37.030Z,68.82
2022-12-01T04:29:06.468Z,79.50
2022-12-01T04:31:33.098Z,69.78
2022-12-01T04:34:00.101Z,82.47
2022-12-01T04:36:29.652Z,83.20
2022-12-01T04:38:56.116Z,90.38
2022-12-01T04:41:22.692Z,93.35
2022-12-01T04:43:49.124Z,82.45
2022-12-01T04:46:15.886Z,95.65
2022-12-01T04:48:43.510Z,88.65
2022-12-01T04:51:10.051Z,89.15
2022-12-01T04:53:37.079Z,98.70
2022-12-01T04:56:03.917Z,83.10
2022-12-01T04:58:31.893Z,96.00
2022-12-01T05:01:03.153Z,115.25
2022-12-01T05:03:35.840Z,107.22
2022-12-01T05:06:08.478Z,86.90
2022-12-01T05:08:34.952Z,99.47
2022-12-01T05:11:02.221Z,100.75
2022-12-01T05:13:29.107Z,88.00
2022-12-01T05:16:05.072Z,104.05
2022-12-01T05:18:31.620Z,99.05
2022-12-01T05:20:58.094Z,88.07
2022-12-01T05:23:29.530Z,92.80
2022-12-01T05:25:56.229Z,95.35
2022-12-01T05:28:25.179Z,98.07
2022-12-01T05:30:54.784Z,92.63
2022-12-01T05:33:25.669Z,94.55
2022-12-01T05:35:52.734Z,93.65
2022-12-01T05:38:20.143Z,97.03
2022-12-01T05:40:52.652Z,94.00
2022-12-01T05:43:25.265Z,109.75
2022-12-01T05:45:55.408Z,101.13
2022-12-01T05:48:22.051Z,100.20
2022-12-01T05:50:48.523Z,95.18
2022-12-01T05:53:15.196Z,96.03
2022-12-01T05:55:42.342Z,106.82
2022-12-01T05:58:09.012Z,96.60
2022-12-01T06:00:42.311Z,97.60
2022-12-01T06:03:12.011Z,91.65
2022-12-01T06:05:38.554Z,100.05
2022-12-01T06:08:05.086Z,86.18
2022-12-01T06:10:31.532Z,90.90
2022-12-01T06:12:57.970Z,97.68
2022-12-01T06:15:24.499Z,100.68
2022-12-01T06:17:50.945Z,96.80
2022-12-01T06:20:17.388Z,88.22
2022-12-01T06:22:43.833Z,91.07
2022-12-01T06:25:10.745Z,86.50
2022-12-01T06:27:37.410Z,94.82
2022-12-01T06:30:05.077Z,94.20
2022-12-01T06:32:31.506Z,100.60
2022-12-01T06:34:58.096Z,81.30
2022-12-01T06:37:24.535Z,87.35
2022-12-01T06:39:51.231Z,90.00
2022-12-01T06:42:17.982Z,89.93
2022-12-01T06:44:44.468Z,93.90
2022-12-01T06:47:10.949Z,74.28
2022-12-01T06:49:38.266Z,75.88
2022-12-01T06:52:05.290Z,81.20
2022-12-01T06:54:31.799Z,85.57
2022-12-01T06:56:58.706Z,83.57
2022-12-01T06:59:26.016Z,83.38
2022-12-01T07:01:52.990Z,90.22
2022-12-01T07:04:19.464Z,84.45
2022-12-01T07:06:45.908Z,97.88
2022-12-01T07:09:12.363Z,98.57
2022-12-01T07:11:38.846Z,98.28
2022-12-01T07:14:05.345Z,96.10
2022-12-01T07:16:31.783Z,93.70
2022-12-01T07:18:59.870Z,104.55
2022-12-01T07:21:26.291Z,110.95
2022-12-01T07:23:52.734Z,110.50
2022-12-01T07:26:19.197Z,102.95
2022-12-01T07:28:45.852Z,100.72
2022-12-01T07:31:15.532Z,125.88
2022-12-01T07:33:42.571Z,119.40
2022-12-01T07:36:09.888Z,117.30
2022-12-01T07:38:37.410Z,113.57
2022-12-01T07:41:07.909Z,111.13
2022-12-01T07:43:34.991Z,130.32
2022-12-01T07:46:23.836Z,137.10
2022-12-01T07:48:51.562Z,128.70
2022-12-01T07:51:18.400Z,120.28
2022-12-01T07:53:46.718Z,117.10
2022-12-01T07:56:13.372Z,115.88
2022-12-01T07:58:40.181Z,146.25
2022-12-01T08:01:25.402Z,122.40
2022-12-01T08:03:54.255Z,146.15
2022-12-01T08:06:21.824Z,138.02
2022-12-01T08:08:48.599Z,121.22
2022-12-01T08:11:20.758Z,125.60
2022-12-01T08:13:47.822Z,135.48
2022-12-01T08:16:16.653Z,132.32
2022-12-01T08:18:43.649Z,131.88
2022-12-01T08:21:12.942Z,147.55
2022-12-01T08:23:42.190Z,137.60
2022-12-01T08:26:13.234Z,134.48
2022-12-01T08:28:40.202Z,130.50
2022-12-01T08:31:17.570Z,147.65
2022-12-01T08:33:44.228Z,134.85
2022-12-01T08:36:10.769Z,147.13
2022-12-01T08:38:37.483Z,144.23
2022-12-01T08:41:08.007Z,147.75
2022-12-01T08:46:33.123Z,145.77
2022-12-01T08:49:00.287Z,159.57
2022-12-01T08:51:27.449Z,148.18
2022-12-01T08:53:55.568Z,145.30
2022-12-01T08:56:25.542Z,153.10
2022-12-01T08:58:53.154Z,157.93
2022-12-01T09:01:20.341Z,145.63
2022-12-01T09:03:47.248Z,147.95
2022-12-01T09:06:16.496Z,154.43
2022-12-01T09:08:43.798Z,154.38
2022-12-01T09:11:13.623Z,142.30
2022-12-01T09:13:40.751Z,141.77
2022-12-01T09:16:10.640Z,139.00
2022-12-01T09:18:37.215Z,151.60
2022-12-01T09:21:12.206Z,132.73
2022-12-01T09:23:39.555Z,128.65
2022-12-01T09:26:09.712Z,138.30
2022-12-01T09:28:38.608Z,108.88
2022-12-01T09:31:09.742Z,131.55
2022-12-01T09:33:36.399Z,126.65
2022-12-01T09:36:04.282Z,136.80
2022-12-01T09:38:31.796Z,133.50
2022-12-01T09:41:05.335Z,148.05
2022-12-01T09:43:40.242Z,131.57
2022-12-01T09:46:11.770Z,118.18
2022-12-01T09:48:43.754Z,112.60
2022-12-01T09:51:19.839Z,132.65
2022-12-01T09:53:49.237Z,111.72
2022-12-01T09:56:23.227Z,114.78
2022-12-01T09:58:53.166Z,117.25
2022-12-01T10:01:25.882Z,115.45
2022-12-01T10:03:57.831Z,109.50
2022-12-01T10:06:37.744Z,109.68
2022-12-01T10:09:26.363Z,102.88
2022-12-01T10:12:00.232Z,117.20
2022-12-01T10:14:29.733Z,98.55
2022-12-01T10:17:18.636Z,111.13
2022-12-01T10:19:54.996Z,106.50
2022-12-01T10:23:01.478Z,106.60
2022-12-01T10:25:34.604Z,121.53
2022-12-01T10:28:22.661Z,105.45
2022-12-01T10:30:51.166Z,107.88
2022-12-01T10:33:24.634Z,97.30
2022-12-01T10:35:51.768Z,96.38
2022-12-01T10:38:34.755Z,88.65
2022-12-01T10:41:03.153Z,95.38
2022-12-01T10:43:38.503Z,99.53
2022-12-01T10:46:34.722Z,92.10
2022-12-01T10:49:09.868Z,87.05
2022-12-01T10:51:57.106Z,95.57
2022-12-01T10:54:32.590Z,92.03
2022-12-01T10:56:59.578Z,99.57
2022-12-01T10:59:42.740Z,88.28
2022-12-01T11:02:19.742Z,82.13
2022-12-01T11:05:20.901Z,81.75
2022-12-01T11:07:47.757Z,84.47
2022-12-01T11:10:19.321Z,100.47
2022-12-01T11:13:12.587Z,91.32
2022-12-01T11:15:48.655Z,92.90
2022-12-01T11:18:38.477Z,86.03
2022-12-01T11:21:13.162Z,77.57
2022-12-01T11:23:51.056Z,91.50
2022-12-01T11:26:27.502Z,84.03
2022-12-01T11:29:03.323Z,81.28
2022-12-01T11:31:48.388Z,86.10
2022-12-01T11:34:21.180Z,82.25
2022-12-01T11:36:51.503Z,84.78
2022-12-01T11:39:28.780Z,77.38
2022-12-01T11:41:57.829Z,75.43
2022-12-01T11:50:04.098Z,83.20
2022-12-01T11:52:36.976Z,70.90
2022-12-01T11:55:12.262Z,76.78
2022-12-01T11:57:44.454Z,83.50
2022-12-01T12:00:45.625Z,71.68
2022-12-01T12:03:18.569Z,82.40
2022-12-01T12:06:38.334Z,85.03
2022-12-01T12:09:14.985Z,86.65
2022-12-01T12:11:57.191Z,77.40
2022-12-01T12:14:28.178Z,81.68
2022-12-01T12:17:17.852Z,68.00
2022-12-01T12:20:19.235Z,69.00
2022-12-01T12:23:03.217Z,73.70
2022-12-01T12:25:32.314Z,71.45
2022-12-01T12:28:50.409Z,78.35
2022-12-01T12:31:32.914Z,83.72
2022-12-01T12:34:28.416Z,72.38
2022-12-01T12:36:54.985Z,80.35
2022-12-01T12:40:02.315Z,61.42
2022-12-01T12:42:46.071Z,67.20
2022-12-01T12:45:40.591Z,67.05
2022-12-01T12:48:38.657Z,72.10
2022-12-01T12:51:37.858Z,71.50
2022-12-01T12:54:34.560Z,74.00
2022-12-01T12:57:05.873Z,64.90
2022-12-01T12:59:55.820Z,71.75
2022-12-01T13:02:33.824Z,73.97
2022-12-01T13:05:09.532Z,64.18
2022-12-01T13:07:42.435Z,58.60
2022-12-01T13:10:19.430Z,63.47
2022-12-01T13:12:56.453Z,65.40
2022-12-01T13:15:23.025Z,69.90
2022-12-01T13:18:04.488Z,62.65
2022-12-01T13:20:33.180Z,69.13
2022-12-01T13:23:01.794Z,66.00
2022-12-01T13:25:34.970Z,64.95
2022-12-01T13:28:04.516Z,67.50
2022-12-01T13:30:31.001Z,64.45
2022-12-01T13:33:05.425Z,61.50
2022-12-01T13:35:37.821Z,61.55
2022-12-01T13:38:21.713Z,61.40
2022-12-01T13:40:48.964Z,60.05
2022-12-01T13:43:23.111Z,63.47
2022-12-01T13:45:49.979Z,66.70
2022-12-01T13:48:45.853Z,69.28
2022-12-01T13:51:14.425Z,60.65
2022-12-01T13:54:01.842Z,59.38
2022-12-01T13:56:45.657Z,64.57
2022-12-01T13:59:49.881Z,65.68
2022-12-01T14:02:20.718Z,69.55
2022-12-01T14:04:47.687Z,54.63
2022-12-01T14:07:26.471Z,68.90
2022-12-01T14:09:57.329Z,67.30
2022-12-01T14:12:32.818Z,64.30
2022-12-01T14:15:03.057Z,65.95
2022-12-01T14:17:38.403Z,72.60
2022-12-01T14:20:17.539Z,67.75
2022-12-01T14:22:46.705Z,70.00
2022-12-01T14:25:25.494Z,63.90
2022-12-01T14:27:57.647Z,66.00
2022-12-01T14:30:39.556Z,65.00
2022-12-01T14:33:39.707Z,67.00
2022-12-01T14:36:26.779Z,66.93
2022-12-01T14:39:01.506Z,70.70
2022-12-01T14:41:42.878Z,63.35
2022-12-01T14:44:18.815Z,60.85
2022-12-01T14:47:00.158Z,61.22
2022-12-01T14:49:32.260Z,61.72
2022-12-01T14:52:04.441Z,68.88
2022-12-01T14:54:38.954Z,65.38
2022-12-01T14:57:09.053Z,62.08
2022-12-01T14:59:39.615Z,68.20
2022-12-01T15:02:09.506Z,62.50
2022-12-01T15:05:05.746Z,59.47
2022-12-01T15:07:38.444Z,63.70
2022-12-01T15:10:06.351Z,69.15
2022-12-01T15:12:33.481Z,73.75
2022-12-01T15:14:59.968Z,63.90
2022-12-01T15:17:32.311Z,66.55
2022-12-01T15:19:59.176Z,73.00
2022-12-01T15:22:30.416Z,67.72
2022-12-01T15:25:12.422Z,63.30
2022-12-01T15:27:39.077Z,62.90
2022-12-01T15:30:07.644Z,75.43
2022-12-01T15:32:37.941Z,75.40
2022-12-01T15:35:05.441Z,70.55
2022-12-01T15:37:42.546Z,71.03
2022-12-01T15:43:05.824Z,77.20
2022-12-01T15:45:45.973Z,68.63
2022-12-01T15:48:16.533Z,71.25
2022-12-01T15:50:46.589Z,68.40
2022-12-01T15:53:29.780Z,71.68
2022-12-01T15:55:59.292Z,65.18
2022-12-01T15:58:30.337Z,82.95
2022-12-01T16:01:03.222Z,76.60
2022-12-01T16:03:30.415Z,75.25
2022-12-01T16:05:58.243Z,73.65
2022-12-01T16:08:27.658Z,71.82
2022-12-01T16:11:15.911Z,74.20
2022-12-01T16:13:48.737Z,83.65
2022-12-01T16:16:44.882Z,79.95
2022-12-01T16:19:11.334Z,81.57
2022-12-01T16:22:10.192Z,74.18
2022-12-01T16:24:46.569Z,69.78
2022-12-01T16:27:22.442Z,81.03
2022-12-01T16:30:03.888Z,80.00
2022-12-01T16:32:37.963Z,80.88
2022-12-01T16:35:06.135Z,86.85
2022-12-01T16:37:33.066Z,85.70
2022-12-01T16:39:59.723Z,81.78
2022-12-01T16:42:27.224Z,87.18
2022-12-01T16:44:54.002Z,75.25
2022-12-01T16:47:25.597Z,87.45
2022-12-01T16:49:52.475Z,82.25
2022-12-01T16:55:21.876Z,81.75
2022-12-01T16:57:48.291Z,77.68
2022-12-01T17:00:15.104Z,86.63
2022-12-01T17:02:41.582Z,65.40
2022-12-01T17:05:10.421Z,82.40
2022-12-01T17:07:36.922Z,89.82
2022-12-01T17:10:03.828Z,76.35
2022-12-01T17:12:30.236Z,72.15
2022-12-01T17:14:56.693Z,85.35
2022-12-01T17:17:23.132Z,82.35
2022-12-01T17:19:51.848Z,71.90
2022-12-01T17:22:18.450Z,83.93
2022-12-01T17:24:45.034Z,76.25
2022-12-01T17:27:11.483Z,84.78
2022-12-01T17:29:43.072Z,93.78
2022-12-01T17:32:13.574Z,74.75
2022-12-01T17:34:40.286Z,87.85
2022-12-01T17:37:06.893Z,74.47
2022-12-01T17:39:34.758Z,79.85
2022-12-01T17:42:01.228Z,76.32
2022-12-01T17:44:27.787Z,81.07
2022-12-01T17:46:54.284Z,82.40
2022-12-01T17:49:21.232Z,72.90
2022-12-01T17:51:47.763Z,79.97
2022-12-01T17:54:14.247Z,70.97
2022-12-01T17:56:41.059Z,79.03
2022-12-01T17:59:07.635Z,78.28
2022-12-01T18:01:34.354Z,76.53
2022-12-01T18:04:00.933Z,82.32
2022-12-01T18:06:27.367Z,91.90
2022-12-01T18:08:54.399Z,75.10
2022-12-01T18:11:21.974Z,82.40
2022-12-01T18:13:50.195Z,89.50
2022-12-01T18:16:23.062Z,87.00
2022-12-01T18:18:50.390Z,77.63
2022-12-01T18:21:20.108Z,78.68
2022-12-01T18:23:54.985Z,78.13
2022-12-01T18:26:22.767Z,74.43
2022-12-01T18:28:57.121Z,82.10
2022-12-01T18:31:24.032Z,71.50
2022-12-01T18:33:51.136Z,76.53
2022-12-01T18:36:23.027Z,70.72
2022-12-01T18:38:50.925Z,79.82
2022-12-01T18:41:17.969Z,75.30
2022-12-01T18:43:45.267Z,68.55
2022-12-01T18:46:13.174Z,73.47
2022-12-01T18:48:51.904Z,72.72
2022-12-01T18:51:19.004Z,72.15
2022-12-01T18:53:45.539Z,67.68
2022-12-01T18:56:12.775Z,76.05
2022-12-01T18:58:40.160Z,78.65
2022-12-01T19:01:24.437Z,68.72
2022-12-01T19:03:51.007Z,67.90
2022-12-01T19:06:17.892Z,74.88
2022-12-01T19:08:44.321Z,77.55
2022-12-01T19:11:10.741Z,68.47
2022-12-01T19:13:37.303Z,77.72
2022-12-01T19:16:09.187Z,69.15
2022-12-01T19:18:36.855Z,69.13
2022-12-01T19:21:04.312Z,67.05
2022-12-01T19:23:31.378Z,74.78
2022-12-01T19:25:58.435Z,67.93
2022-12-01T19:28:24.856Z,66.40
2022-12-01T19:30:51.390Z,76.85
2022-12-01T19:33:17.824Z,64.90
2022-12-01T19:35:44.267Z,72.70
2022-12-01T19:38:10.705Z,89.28
2022-12-01T19:40:38.546Z,75.15
2022-12-01T19:43:05.340Z,77.80
2022-12-01T19:45:32.606Z,69.03
2022-12-01T19:47:59.285Z,73.55
2022-12-01T19:50:25.862Z,75.75
2022-12-01T19:52:52.349Z,76.88
2022-12-01T19:55:22.422Z,75.53
2022-12-01T19:57:51.983Z,69.88
2022-12-01T20:00:21.788Z,69.80
2022-12-01T20:02:49.118Z,73.60
2022-12-01T20:05:15.943Z,72.13
2022-12-01T20:07:42.568Z,63.13
2022-12-01T20:10:09.626Z,75.82
2022-12-01T20:12:36.129Z,68.53
2022-12-01T20:15:09.321Z,68.60
2022-12-01T20:17:39.935Z,56.28
2022-12-01T20:20:07.339Z,68.00
2022-12-01T20:22:34.843Z,72.25
2022-12-01T20:25:01.340Z,63.13
2022-12-01T20:27:28.536Z,60.08
2022-12-01T20:29:55.349Z,63.63
2022-12-01T20:32:23.832Z,72.75
2022-12-01T20:34:50.734Z,70.00
2022-12-01T20:37:19.483Z,74.72
2022-12-01T20:39:46.782Z,58.20
2022-12-01T20:42:13.618Z,66.03
2022-12-01T20:44:40.571Z,64.50
2022-12-01T20:47:07.015Z,60.42
2022-12-01T20:49:34.134Z,64.32
2022-12-01T20:52:00.575Z,61.67
2022-12-01T20:54:28.888Z,69.45
2022-12-01T20:56:56.393Z,70.55
2022-12-01T20:59:24.329Z,65.72
2022-12-01T21:01:50.758Z,69.68
2022-12-01T21:04:17.425Z,68.80
2022-12-01T21:06:43.906Z,67.10
2022-12-01T21:09:11.600Z,67.40
2022-12-01T21:12:03.740Z,60.90
2022-12-01T21:15:00.677Z,56.83
2022-12-01T21:17:37.288Z,64.60
2022-12-01T21:20:21.715Z,59.03
2022-12-01T21:25:22.910Z,53.70
2022-12-01T21:27:49.956Z,68.20
2022-12-01T21:30:22.610Z,65.53
2022-12-01T21:32:49.785Z,64.35
2022-12-01T21:35:27.393Z,62.03
2022-12-01T21:38:00.532Z,61.13
2022-12-01T21:40:28.448Z,52.20
2022-12-01T21:42:58.377Z,60.17
2022-12-01T21:45:27.819Z,63.20
2022-12-01T21:48:00.227Z,61.25
2022-12-01T21:50:27.341Z,56.72
2022-12-01T21:52:53.782Z,62.65
2022-12-01T21:55:20.297Z,62.17
2022-12-01T21:57:49.023Z,52.70
2022-12-01T22:00:21.568Z,60.42
2022-12-01T22:03:09.975Z,64.28
2022-12-01T22:06:00.945Z,66.82
2022-12-01T22:08:34.352Z,55.83
2022-12-01T22:11:04.163Z,60.30
2022-12-01T22:13:41.083Z,70.13
2022-12-01T22:16:14.736Z,59.55
2022-12-01T22:18:44.934Z,57.63
2022-12-01T22:21:47.845Z,56.85
2022-12-01T22:24:26.471Z,58.92
2022-12-01T22:27:05.808Z,55.00
2022-12-01T22:29:39.414Z,53.30
2022-12-01T22:32:11.934Z,57.42
2022-12-01T22:34:39.898Z,53.40
2022-12-01T22:37:43.221Z,53.72
2022-12-01T22:40:33.802Z,58.20
2022-12-01T22:43:23.472Z,55.55
2022-12-01T22:46:01.340Z,54.85
2022-12-01T22:48:32.006Z,56.97
2022-12-01T22:51:13.963Z,55.35
2022-12-01T22:53:41.697Z,54.50
2022-12-01T22:56:26.252Z,51.53
2022-12-01T23:01:49.852Z,58.25
2022-12-01T23:04:31.893Z,61.92
2022-12-01T23:07:02.067Z,65.65
2022-12-01T23:09:44.992Z,52.88
2022-12-01T23:12:11.392Z,56.20
2022-12-01T23:14:51.609Z,46.72
2022-12-01T23:17:29.825Z,58.00
2022-12-01T23:20:11.636Z,52.67
2022-12-01T23:22:38.562Z,64.30
2022-12-01T23:25:19.140Z,60.83
2022-12-01T23:27:48.614Z,50.42
2022-12-01T23:30:17.454Z,54.75
2022-12-01T23:32:45.446Z,50.05
2022-12-01T23:35:18.204Z,56.92
2022-12-01T23:37:47.447Z,57.70
2022-12-01T23:40:22.319Z,49.58
2022-12-01T23:42:48.940Z,61.72
2022-12-01T23:45:23.181Z,58.38
2022-12-01T23:47:51.376Z,52.78
2022-12-01T23:50:26.235Z,59.67
2022-12-01T23:52:53.126Z,68.57
2022-12-01T23:55:22.788Z,57.65
2022-12-01T23:57:49.949Z,51.83
